createdAt,value
2023-01-22T00:00:43.756Z,7.44
2023-01-22T00:03:34.703Z,7.65
2023-01-22T00:06:06.594Z,6.51
2023-01-22T00:08:38.102Z,5.48
2023-01-22T00:11:12.693Z,5.84
2023-01-22T00:13:43.783Z,6.76
2023-01-22T00:16:18.529Z,7.16
2023-01-22T00:18:49.701Z,7.60
2023-01-22T00:21:24.558Z,7.20
2023-01-22T00:23:58.206Z,5.86
2023-01-22T00:26:29.346Z,5.54
2023-01-22T00:29:00.159Z,6.35
2023-01-22T00:31:32.305Z,7.24
2023-01-22T00:34:07.104Z,7.43
2023-01-22T00:36:37.839Z,6.32
2023-01-22T00:39:08.979Z,5.04
2023-01-22T00:41:40.264Z,5.15
2023-01-22T00:44:13.368Z,6.19
2023-01-22T00:46:46.847Z,6.91
2023-01-22T00:49:22.897Z,7.43
2023-01-22T00:51:54.176Z,6.40
2023-01-22T00:54:25.360Z,5.31
2023-01-22T00:57:00.113Z,5.87
2023-01-22T00:59:35.520Z,6.67
2023-01-22T01:02:09.525Z,7.37
2023-01-22T01:04:40.356Z,6.64
2023-01-22T01:07:13.995Z,5.26
2023-01-22T01:09:44.927Z,4.91
2023-01-22T01:12:17.615Z,5.68
2023-01-22T01:14:48.361Z,6.45
2023-01-22T01:17:19.351Z,6.96
2023-01-22T01:19:50.415Z,7.09
2023-01-22T01:22:21.619Z,5.90
2023-01-22T01:24:52.969Z,4.92
2023-01-22T01:27:23.749Z,5.61
2023-01-22T01:29:55.286Z,6.42
2023-01-22T01:32:26.270Z,7.09
2023-01-22T01:34:57.318Z,7.24
2023-01-22T01:37:29.715Z,6.65
2023-01-22T01:40:00.797Z,5.37
2023-01-22T01:42:34.105Z,5.73
2023-01-22T01:45:26.832Z,6.69
2023-01-22T01:48:03.206Z,7.33
2023-01-22T01:50:35.047Z,7.87
2023-01-22T01:53:05.900Z,7.99
2023-01-22T01:55:40.580Z,6.86
2023-01-22T01:58:14.849Z,5.65
2023-01-22T02:00:46.988Z,4.99
2023-01-22T02:03:18.152Z,5.79
2023-01-22T02:05:49.202Z,6.82
2023-01-22T02:08:21.752Z,7.49
2023-01-22T02:10:53.250Z,7.41
2023-01-22T02:13:26.047Z,6.28
2023-01-22T02:15:57.068Z,5.40
2023-01-22T02:18:30.954Z,6.06
2023-01-22T02:21:02.538Z,6.94
2023-01-22T02:23:37.823Z,7.64
2023-01-22T02:26:09.689Z,7.84
2023-01-22T02:28:40.912Z,7.07
2023-01-22T02:31:11.939Z,5.92
2023-01-22T02:33:43.018Z,5.04
2023-01-22T02:36:19.786Z,5.33
2023-01-22T02:38:52.293Z,6.19
2023-01-22T02:41:23.861Z,6.81
2023-01-22T02:44:02.127Z,6.85
2023-01-22T02:46:39.714Z,5.93
2023-01-22T02:49:10.869Z,5.15
2023-01-22T02:51:44.291Z,5.57
2023-01-22T02:54:15.481Z,6.29
2023-01-22T02:57:07.144Z,6.90
2023-01-22T02:59:38.106Z,5.86
2023-01-22T03:02:09.657Z,4.80
2023-01-22T03:04:43.123Z,5.01
2023-01-22T03:07:14.263Z,5.97
2023-01-22T03:09:45.853Z,6.36
2023-01-22T03:12:17.008Z,6.83
2023-01-22T03:15:05.911Z,7.24
2023-01-22T03:17:54.823Z,5.92
2023-01-22T03:20:43.484Z,4.94
2023-01-22T03:23:27.684Z,5.70
2023-01-22T03:25:58.885Z,6.15
2023-01-22T03:28:29.927Z,6.61
2023-01-22T03:31:03.120Z,7.07
2023-01-22T03:33:35.288Z,6.18
2023-01-22T03:36:10.908Z,4.94
2023-01-22T03:38:45.715Z,5.79
2023-01-22T03:41:25.390Z,6.59
2023-01-22T03:43:56.740Z,6.68
2023-01-22T03:46:40.619Z,5.35
2023-01-22T03:49:14.088Z,4.64
2023-01-22T03:51:45.296Z,5.27
2023-01-22T03:54:19.556Z,5.90
2023-01-22T03:56:53.287Z,6.31
2023-01-22T03:59:32.021Z,6.38
2023-01-22T04:02:03.218Z,6.27
2023-01-22T04:04:50.903Z,6.72
2023-01-22T04:07:23.510Z,6.30
2023-01-22T04:09:53.900Z,4.92
2023-01-22T04:12:24.712Z,4.52
2023-01-22T04:14:55.956Z,5.24
2023-01-22T04:17:27.027Z,6.00
2023-01-22T04:20:16.966Z,6.32
2023-01-22T04:22:56.219Z,7.01
2023-01-22T04:25:27.461Z,5.66
2023-01-22T04:27:58.710Z,4.88
2023-01-22T04:30:30.114Z,5.69
2023-01-22T04:33:13.239Z,6.58
2023-01-22T04:36:05.427Z,6.87
2023-01-22T04:38:36.357Z,5.94
2023-01-22T04:41:09.761Z,4.88
2023-01-22T04:43:40.867Z,5.54
2023-01-22T04:46:20.686Z,6.58
2023-01-22T04:48:51.778Z,6.93
2023-01-22T04:51:23.980Z,7.02
2023-01-22T04:53:55.394Z,5.72
2023-01-22T04:56:26.963Z,4.85
2023-01-22T04:58:58.806Z,5.53
2023-01-22T05:01:30.153Z,6.08
2023-01-22T05:04:03.633Z,6.62
2023-01-22T05:06:37.528Z,6.55
2023-01-22T05:09:08.498Z,6.80
2023-01-22T05:11:54.349Z,6.58
2023-01-22T05:14:25.389Z,5.18
2023-01-22T05:16:58.925Z,5.37
2023-01-22T05:19:32.941Z,6.01
2023-01-22T05:22:04.186Z,6.69
2023-01-22T05:24:36.562Z,6.94
2023-01-22T05:27:08.203Z,5.62
2023-01-22T05:29:49.298Z,4.92
2023-01-22T05:32:39.491Z,5.82
2023-01-22T05:35:11.333Z,6.43
2023-01-22T05:37:43.051Z,6.84
2023-01-22T05:40:14.990Z,7.09
2023-01-22T05:42:47.176Z,6.72
2023-01-22T05:45:18.261Z,5.53
2023-01-22T05:48:03.598Z,5.42
2023-01-22T05:50:46.134Z,6.27
2023-01-22T05:53:17.754Z,6.76
2023-01-22T05:55:48.546Z,6.86
2023-01-22T05:58:21.821Z,7.05
2023-01-22T06:00:54.841Z,6.20
2023-01-22T06:03:27.010Z,5.00
2023-01-22T06:06:01.800Z,5.46
2023-01-22T06:08:34.376Z,6.48
2023-01-22T06:11:06.204Z,6.87
2023-01-22T06:13:38.516Z,7.01
2023-01-22T06:16:19.063Z,7.24
2023-01-22T06:19:04.876Z,6.31
2023-01-22T06:21:43.913Z,4.89
2023-01-22T06:24:15.250Z,4.73
2023-01-22T06:26:46.385Z,5.83
2023-01-22T06:29:18.561Z,6.07
2023-01-22T06:31:52.495Z,6.06
2023-01-22T06:34:24.145Z,6.32
2023-01-22T06:36:55.573Z,6.56
2023-01-22T06:39:28.337Z,7.19
2023-01-22T06:42:07.555Z,7.06
2023-01-22T06:44:38.652Z,6.94
2023-01-22T06:47:09.669Z,7.29
2023-01-22T06:49:40.942Z,6.35
2023-01-22T06:52:11.805Z,5.45
2023-01-22T06:54:42.982Z,5.57
2023-01-22T06:57:14.089Z,6.09
2023-01-22T06:59:45.331Z,6.54
2023-01-22T07:02:18.456Z,6.90
2023-01-22T07:04:49.549Z,7.23
2023-01-22T07:07:23.598Z,6.48
2023-01-22T07:09:54.613Z,5.10
2023-01-22T07:12:26.182Z,5.45
2023-01-22T07:14:57.357Z,6.09
2023-01-22T07:17:31.324Z,6.32
2023-01-22T07:20:02.197Z,6.74
2023-01-22T07:22:42.140Z,6.68
2023-01-22T07:25:13.176Z,6.62
2023-01-22T07:27:44.016Z,6.98
2023-01-22T07:30:16.231Z,7.09
2023-01-22T07:32:47.256Z,7.02
2023-01-22T07:35:19.031Z,6.72
2023-01-22T07:37:56.498Z,6.53
2023-01-22T07:40:27.785Z,6.28
2023-01-22T07:43:01.054Z,6.63
2023-01-22T07:45:32.059Z,6.56
2023-01-22T07:48:05.888Z,6.67
2023-01-22T07:50:37.503Z,6.67
2023-01-22T07:53:09.803Z,6.76
2023-01-22T07:55:41.856Z,6.92
2023-01-22T07:58:14.993Z,7.56
2023-01-22T08:00:46.123Z,6.38
2023-01-22T08:03:19.598Z,5.18
2023-01-22T08:05:50.814Z,5.51
2023-01-22T08:08:21.763Z,6.07
2023-01-22T08:10:52.988Z,6.62
2023-01-22T08:13:26.137Z,6.84
2023-01-22T08:15:56.245Z,6.82
2023-01-22T08:18:27.142Z,7.27
2023-01-22T08:21:00.834Z,7.13
2023-01-22T08:23:31.608Z,7.52
2023-01-22T08:26:04.358Z,7.63
2023-01-22T08:28:35.308Z,6.30
2023-01-22T08:31:11.280Z,5.33
2023-01-22T08:33:47.641Z,5.94
2023-01-22T08:36:18.774Z,6.60
2023-01-22T08:38:49.814Z,6.69
2023-01-22T08:41:25.359Z,6.89
2023-01-22T08:43:56.570Z,7.44
2023-01-22T08:46:27.493Z,6.73
2023-01-22T08:48:58.341Z,5.69
2023-01-22T08:51:31.046Z,6.10
2023-01-22T08:54:03.015Z,6.67
2023-01-22T08:56:34.013Z,6.91
2023-01-22T08:59:08.211Z,6.79
2023-01-22T09:01:39.479Z,7.26
2023-01-22T09:04:11.634Z,7.12
2023-01-22T09:06:42.624Z,7.15
2023-01-22T09:09:14.218Z,7.54
2023-01-22T09:11:46.775Z,6.73
2023-01-22T09:14:17.741Z,5.59
2023-01-22T09:16:48.956Z,5.79
2023-01-22T09:19:28.582Z,6.67
2023-01-22T09:22:06.854Z,6.94
2023-01-22T09:24:37.978Z,7.17
2023-01-22T09:27:10.249Z,7.37
2023-01-22T09:29:41.082Z,7.46
2023-01-22T09:32:12.193Z,7.84
2023-01-22T09:34:42.807Z,7.01
2023-01-22T09:37:15.227Z,5.94
2023-01-22T09:39:46.105Z,6.30
2023-01-22T09:42:19.293Z,6.91
2023-01-22T09:45:02.210Z,7.35
2023-01-22T09:47:35.476Z,7.42
2023-01-22T09:50:27.617Z,7.55
2023-01-22T09:53:00.701Z,7.57
2023-01-22T09:55:32.623Z,7.37
2023-01-22T09:58:08.622Z,7.45
2023-01-22T10:00:45.758Z,7.77
2023-01-22T10:03:44.079Z,8.05
2023-01-22T10:06:30.828Z,7.88
2023-01-22T10:16:03.917Z,6.93
2023-01-22T10:19:23.180Z,7.38
2023-01-22T10:22:35.252Z,7.58
2023-01-22T10:26:25.606Z,7.75
2023-01-22T10:29:34.163Z,8.09
2023-01-22T10:32:59.685Z,6.36
2023-01-22T10:35:48.859Z,5.93
2023-01-22T10:39:07.308Z,6.60
2023-01-22T10:42:47.817Z,7.56
2023-01-22T10:45:03.656Z,7.93
2023-01-22T10:48:07.037Z,8.17
2023-01-22T10:50:38.584Z,7.16
2023-01-22T10:53:18.477Z,6.17
2023-01-22T10:55:56.642Z,6.79
2023-01-22T10:58:30.460Z,7.55
2023-01-22T11:01:02.552Z,8.04
2023-01-22T11:03:35.126Z,8.37
2023-01-22T11:06:13.097Z,8.32
2023-01-22T11:08:50.188Z,8.23
2023-01-22T11:11:23.533Z,8.27
2023-01-22T11:13:52.771Z,8.62
2023-01-22T11:16:29.922Z,8.28
2023-01-22T11:19:01.993Z,6.70
2023-01-22T11:21:54.866Z,5.95
2023-01-22T11:24:57.040Z,6.67
2023-01-22T11:27:41.393Z,7.70
2023-01-22T11:39:59.616Z,8.13
2023-01-22T11:42:37.861Z,6.84
2023-01-22T11:45:15.131Z,6.81
2023-01-22T11:47:51.677Z,7.76
2023-01-22T11:50:26.908Z,8.10
2023-01-22T11:53:02.322Z,8.51
2023-01-22T11:56:03.994Z,8.61
2023-01-22T11:58:46.759Z,8.77
2023-01-22T12:01:20.857Z,8.48
2023-01-22T12:04:02.455Z,8.69
2023-01-22T12:06:43.617Z,8.53
2023-01-22T12:09:19.691Z,8.45
2023-01-22T12:11:57.782Z,8.60
2023-01-22T12:14:38.348Z,8.85
2023-01-22T12:17:19.820Z,8.91
2023-01-22T12:19:57.460Z,9.00
2023-01-22T12:22:42.434Z,9.02
2023-01-22T12:25:36.345Z,8.31
2023-01-22T12:28:05.837Z,6.88
2023-01-22T12:30:42.184Z,7.00
2023-01-22T12:33:15.021Z,7.74
2023-01-22T12:35:46.365Z,8.21
2023-01-22T12:38:20.982Z,8.38
2023-01-22T12:40:58.341Z,8.80
2023-01-22T12:43:31.670Z,8.64
2023-01-22T12:56:58.048Z,8.97
2023-01-22T12:59:44.149Z,7.40
2023-01-22T13:02:37.973Z,7.11
2023-01-22T13:05:20.001Z,7.92
2023-01-22T13:08:57.320Z,8.23
2023-01-22T13:11:32.156Z,8.54
2023-01-22T13:14:17.100Z,8.69
2023-01-22T13:16:55.955Z,8.64
2023-01-22T13:19:28.707Z,8.91
2023-01-22T13:22:14.897Z,8.98
2023-01-22T13:24:51.499Z,8.85
2023-01-22T13:27:25.384Z,8.91
2023-01-22T13:30:07.276Z,9.06
2023-01-22T13:32:38.489Z,9.16
2023-01-22T13:35:13.776Z,9.06
2023-01-22T13:37:46.381Z,9.18
2023-01-22T13:40:23.652Z,9.38
2023-01-22T13:42:55.446Z,8.72
2023-01-22T13:45:30.753Z,7.20
2023-01-22T13:48:06.014Z,6.94
2023-01-22T13:50:37.017Z,7.57
2023-01-22T13:53:08.355Z,8.07
2023-01-22T13:55:39.588Z,8.32
2023-01-22T13:58:24.161Z,8.65
2023-01-22T14:00:55.834Z,8.75
2023-01-22T14:03:28.080Z,8.92
2023-01-22T14:06:06.431Z,9.15
2023-01-22T14:08:47.124Z,9.21
2023-01-22T14:11:18.273Z,9.39
2023-01-22T14:13:52.417Z,9.29
2023-01-22T14:16:21.730Z,9.31
2023-01-22T14:18:52.738Z,9.41
2023-01-22T14:21:23.513Z,9.54
2023-01-22T14:23:54.985Z,9.68
2023-01-22T14:26:26.267Z,9.91
2023-01-22T14:28:57.442Z,9.12
2023-01-22T14:31:29.468Z,7.85
2023-01-22T14:34:01.040Z,6.84
2023-01-22T14:36:32.382Z,6.80
2023-01-22T14:39:06.697Z,7.85
2023-01-22T14:41:40.979Z,8.56
2023-01-22T14:44:12.162Z,8.96
2023-01-22T14:46:43.492Z,9.38
2023-01-22T14:49:14.639Z,9.75
2023-01-22T14:51:46.167Z,9.94
2023-01-22T14:54:24.894Z,9.78
2023-01-22T14:56:59.899Z,8.34
2023-01-22T14:59:30.890Z,7.07
2023-01-22T15:02:03.937Z,6.51
2023-01-22T15:04:34.807Z,7.27
2023-01-22T15:07:06.162Z,8.04
2023-01-22T15:09:37.066Z,8.66
2023-01-22T15:12:08.504Z,8.98
2023-01-22T15:14:39.526Z,9.11
2023-01-22T15:17:10.966Z,9.47
2023-01-22T15:19:42.001Z,9.62
2023-01-22T15:22:12.923Z,9.80
2023-01-22T15:24:48.066Z,9.94
2023-01-22T15:27:19.048Z,9.81
2023-01-22T15:29:50.346Z,8.47
2023-01-22T15:32:21.153Z,7.12
2023-01-22T15:34:52.030Z,6.90
2023-01-22T15:37:24.186Z,7.72
2023-01-22T15:39:54.988Z,8.45
2023-01-22T15:42:25.857Z,8.65
2023-01-22T15:44:57.611Z,8.97
2023-01-22T15:47:29.046Z,9.24
2023-01-22T15:50:00.625Z,9.36
2023-01-22T15:52:31.449Z,9.59
2023-01-22T15:55:02.904Z,9.75
2023-01-22T15:57:34.753Z,9.94
2023-01-22T16:00:06.630Z,10.18
2023-01-22T16:02:43.414Z,9.99
2023-01-22T16:05:14.375Z,8.66
2023-01-22T16:07:45.299Z,7.45
2023-01-22T16:10:18.284Z,6.82
2023-01-22T16:12:49.665Z,7.60
2023-01-22T16:15:20.586Z,8.42
2023-01-22T16:17:51.373Z,8.93
2023-01-22T16:20:27.188Z,9.26
2023-01-22T16:22:58.365Z,9.47
2023-01-22T16:25:29.294Z,9.57
2023-01-22T16:28:00.955Z,9.70
2023-01-22T16:30:31.855Z,9.72
2023-01-22T16:33:04.527Z,9.87
2023-01-22T16:35:35.605Z,10.06
2023-01-22T16:38:11.155Z,10.20
2023-01-22T16:40:42.417Z,9.98
2023-01-22T16:43:13.345Z,8.74
2023-01-22T16:45:44.813Z,7.39
2023-01-22T16:48:19.933Z,6.75
2023-01-22T16:50:51.520Z,7.69
2023-01-22T16:53:22.366Z,8.60
2023-01-22T16:55:53.690Z,9.12
2023-01-22T16:58:25.011Z,9.52
2023-01-22T17:00:56.383Z,9.46
2023-01-22T17:03:27.190Z,9.54
2023-01-22T17:06:03.247Z,9.78
2023-01-22T17:08:33.892Z,9.92
2023-01-22T17:11:06.189Z,9.87
2023-01-22T17:13:37.341Z,9.79
2023-01-22T17:16:12.467Z,9.94
2023-01-22T17:18:43.913Z,10.10
2023-01-22T17:21:15.744Z,10.14
2023-01-22T17:23:47.148Z,10.14
2023-01-22T17:26:18.247Z,8.93
2023-01-22T17:28:49.657Z,7.63
2023-01-22T17:31:22.191Z,6.94
2023-01-22T17:33:57.285Z,7.59
2023-01-22T17:36:36.620Z,8.30
2023-01-22T17:39:15.650Z,8.87
2023-01-22T17:41:46.385Z,9.14
2023-01-22T17:44:26.491Z,9.18
2023-01-22T17:47:06.801Z,9.39
2023-01-22T17:49:38.063Z,9.68
2023-01-22T17:52:09.795Z,9.62
2023-01-22T17:54:45.044Z,9.61
2023-01-22T17:57:24.780Z,9.73
2023-01-22T18:00:05.485Z,9.86
2023-01-22T18:02:39.159Z,9.94
2023-01-22T18:05:15.028Z,10.19
2023-01-22T18:07:46.595Z,10.38
2023-01-22T18:10:17.446Z,9.82
2023-01-22T18:12:49.461Z,8.41
2023-01-22T18:15:20.460Z,7.21
2023-01-22T18:17:56.853Z,6.65
2023-01-22T18:20:27.799Z,7.59
2023-01-22T18:22:58.880Z,8.58
2023-01-22T18:25:29.469Z,9.15
2023-01-22T18:28:05.603Z,9.64
2023-01-22T18:30:41.648Z,10.02
2023-01-22T18:33:14.576Z,10.22
2023-01-22T18:35:45.638Z,10.35
2023-01-22T18:38:21.675Z,10.26
2023-01-22T18:40:57.188Z,9.02
2023-01-22T18:43:28.660Z,7.77
2023-01-22T18:46:03.044Z,7.14
2023-01-22T18:48:39.443Z,8.02
2023-01-22T18:51:11.337Z,8.97
2023-01-22T18:53:43.169Z,9.47
2023-01-22T18:56:14.316Z,9.76
2023-01-22T18:58:48.512Z,10.01
2023-01-22T19:01:22.610Z,10.27
2023-01-22T19:03:55.701Z,10.10
2023-01-22T19:06:28.099Z,8.83
2023-01-22T19:09:02.944Z,7.77
2023-01-22T19:11:35.624Z,8.33
2023-01-22T19:14:16.431Z,9.06
2023-01-22T19:16:55.403Z,9.51
2023-01-22T19:19:35.192Z,9.92
2023-01-22T19:22:06.908Z,10.12
2023-01-22T19:24:37.640Z,10.32
2023-01-22T19:27:09.046Z,9.73
2023-01-22T19:29:39.935Z,8.31
2023-01-22T19:32:15.148Z,7.19
2023-01-22T19:34:45.697Z,6.70
2023-01-22T19:37:16.842Z,7.66
2023-01-22T19:39:47.386Z,8.69
2023-01-22T19:42:18.981Z,9.33
2023-01-22T19:44:49.586Z,9.71
2023-01-22T19:47:27.454Z,9.88
2023-01-22T19:49:58.492Z,10.03
2023-01-22T19:52:30.051Z,10.26
2023-01-22T19:55:11.319Z,10.27
2023-01-22T19:57:52.593Z,9.06
2023-01-22T20:00:23.675Z,7.76
2023-01-22T20:02:55.299Z,7.10
2023-01-22T20:05:26.489Z,7.95
2023-01-22T20:08:01.588Z,8.96
2023-01-22T20:10:34.046Z,9.59
2023-01-22T20:13:05.099Z,9.96
2023-01-22T20:15:43.923Z,10.13
2023-01-22T20:18:18.950Z,10.30
2023-01-22T20:31:41.549Z,8.47
2023-01-22T20:34:10.363Z,9.10
2023-01-22T20:36:38.125Z,9.44
2023-01-22T20:39:06.697Z,9.80
2023-01-22T20:41:34.780Z,9.99
2023-01-22T20:44:02.623Z,10.12
2023-01-22T20:46:30.915Z,10.36
2023-01-22T20:48:59.189Z,10.08
2023-01-22T20:51:27.930Z,8.73
2023-01-22T20:53:57.075Z,7.43
2023-01-22T20:56:28.253Z,6.77
2023-01-22T20:58:57.514Z,7.65
2023-01-22T21:01:31.109Z,8.64
2023-01-22T21:04:00.368Z,9.15
2023-01-22T21:06:29.711Z,9.51
2023-01-22T21:08:58.452Z,9.75
2023-01-22T21:11:27.906Z,10.04
2023-01-22T21:13:56.687Z,10.28
2023-01-22T21:16:26.243Z,10.19
2023-01-22T21:18:55.694Z,9.01
2023-01-22T21:21:23.978Z,7.80
2023-01-22T21:23:52.849Z,7.13
2023-01-22T21:26:22.680Z,7.90
2023-01-22T21:28:53.508Z,8.83
2023-01-22T21:31:22.035Z,9.48
2023-01-22T21:33:52.278Z,9.92
2023-01-22T21:36:21.907Z,10.21
2023-01-22T21:38:49.880Z,10.14
2023-01-22T21:41:18.676Z,8.93
2023-01-22T21:44:05.450Z,7.68
2023-01-22T21:46:34.578Z,7.01
2023-01-22T21:49:15.951Z,7.95
2023-01-22T21:51:45.455Z,9.00
2023-01-22T21:54:14.202Z,9.52
2023-01-22T21:56:43.033Z,9.91
2023-01-22T21:59:12.430Z,10.17
2023-01-22T22:01:40.639Z,10.13
2023-01-22T22:04:09.096Z,9.06
2023-01-22T22:06:37.898Z,7.86
2023-01-22T22:09:06.663Z,6.94
2023-01-22T22:11:34.580Z,6.53
2023-01-22T22:14:05.872Z,7.52
2023-01-22T22:16:34.228Z,8.62
2023-01-22T22:19:02.432Z,9.30
2023-01-22T22:21:31.115Z,9.74
2023-01-22T22:23:59.005Z,10.07
2023-01-22T22:26:27.363Z,10.06
2023-01-22T22:28:55.431Z,8.91
2023-01-22T22:31:23.778Z,7.69
2023-01-22T22:33:52.552Z,7.07
2023-01-22T22:36:22.060Z,7.98
2023-01-22T22:38:50.295Z,8.96
2023-01-22T22:41:20.368Z,9.54
2023-01-22T22:43:50.306Z,9.97
2023-01-22T22:46:19.781Z,10.27
2023-01-22T22:48:47.992Z,9.99
2023-01-22T22:51:17.543Z,8.73
2023-01-22T22:53:45.888Z,7.59
2023-01-22T22:56:14.184Z,6.98
2023-01-22T22:58:42.733Z,7.81
2023-01-22T23:01:11.517Z,8.84
2023-01-22T23:03:39.830Z,9.43
2023-01-22T23:06:11.483Z,9.89
2023-01-22T23:08:40.246Z,10.15
2023-01-22T23:11:09.638Z,10.05
2023-01-22T23:13:38.641Z,8.79
2023-01-22T23:16:07.544Z,7.50
2023-01-22T23:18:36.099Z,7.49
2023-01-22T23:21:05.192Z,8.48
2023-01-22T23:23:34.236Z,9.27
2023-01-22T23:26:02.303Z,9.88
2023-01-22T23:28:30.633Z,9.52
2023-01-22T23:31:03.730Z,8.08
2023-01-22T23:33:33.230Z,7.44
2023-01-22T23:36:01.602Z,8.12
2023-01-22T23:38:29.571Z,8.73
2023-01-22T23:40:57.957Z,9.24
2023-01-22T23:43:26.225Z,9.66
2023-01-22T23:45:54.195Z,10.01
2023-01-22T23:48:22.673Z,10.31
2023-01-22T23:50:51.282Z,10.04
2023-01-22T23:53:19.833Z,8.75
2023-01-22T23:55:48.234Z,7.55
2023-01-22T23:58:16.594Z,6.91
